createdAt,value
2019-02-11T00:00:59.806Z,989.21
2019-02-11T00:02:03.956Z,989.24
2019-02-11T00:03:08.198Z,989.27
2019-02-11T00:04:15.271Z,989.34
2019-02-11T00:05:18.446Z,989.42
2019-02-11T00:06:22.598Z,989.44
2019-02-11T00:07:26.660Z,989.48
2019-02-11T00:08:30.879Z,989.56
2019-02-11T00:09:35.096Z,989.61
2019-02-11T00:10:39.283Z,989.65
2019-02-11T00:11:43.483Z,989.71
2019-02-11T00:12:47.638Z,989.75
2019-02-11T00:13:51.888Z,989.78
2019-02-11T00:14:55.925Z,989.80
2019-02-11T00:16:00.082Z,989.84
2019-02-11T00:17:04.096Z,989.89
2019-02-11T00:18:08.388Z,989.91
2019-02-11T00:19:12.470Z,989.98
2019-02-11T00:20:16.546Z,990.02
2019-02-11T00:21:20.783Z,990.04
2019-02-11T00:22:24.868Z,990.08
2019-02-11T00:23:29.035Z,990.13
2019-02-11T00:24:33.157Z,990.14
2019-02-11T00:25:37.378Z,990.16
2019-02-11T00:26:41.541Z,990.19
2019-02-11T00:27:45.553Z,990.22
2019-02-11T00:28:49.813Z,990.27
2019-02-11T00:29:54.043Z,990.30
2019-02-11T00:30:58.140Z,990.33
2019-02-11T00:32:02.355Z,990.34
2019-02-11T00:33:06.518Z,990.37
2019-02-11T00:34:10.628Z,990.41
2019-02-11T00:35:14.730Z,990.47
2019-02-11T00:36:18.976Z,990.51
2019-02-11T00:37:22.990Z,990.54
2019-02-11T00:38:27.035Z,990.59
2019-02-11T00:39:31.393Z,990.62
2019-02-11T00:40:35.447Z,990.62
2019-02-11T00:41:39.660Z,990.69
2019-02-11T00:42:43.697Z,990.70
2019-02-11T00:43:47.871Z,990.73
2019-02-11T00:44:51.975Z,990.77
2019-02-11T00:45:56.197Z,990.79
2019-02-11T00:47:00.315Z,990.86
2019-02-11T00:48:04.438Z,990.87
2019-02-11T00:49:08.588Z,990.91
2019-02-11T00:50:12.732Z,990.93
2019-02-11T00:51:16.905Z,990.98
2019-02-11T00:52:21.067Z,990.96
2019-02-11T00:53:25.229Z,991.03
2019-02-11T00:54:29.395Z,991.04
2019-02-11T00:55:33.510Z,991.06
2019-02-11T00:56:37.589Z,991.10
2019-02-11T00:57:41.889Z,991.10
2019-02-11T00:58:45.926Z,991.13
2019-02-11T00:59:50.118Z,991.13
2019-02-11T01:00:54.298Z,991.16
2019-02-11T01:01:58.379Z,991.19
2019-02-11T01:03:02.485Z,991.19
2019-02-11T01:04:06.713Z,991.24
2019-02-11T01:05:10.846Z,991.26
2019-02-11T01:06:15.004Z,991.30
2019-02-11T01:07:19.192Z,991.33
2019-02-11T01:08:23.293Z,991.35
2019-02-11T01:09:27.352Z,991.39
2019-02-11T01:10:31.582Z,991.44
2019-02-11T01:11:35.685Z,991.46
2019-02-11T01:12:39.920Z,991.44
2019-02-11T01:13:43.966Z,991.48
2019-02-11T01:14:48.201Z,991.49
2019-02-11T01:15:52.342Z,991.52
2019-02-11T01:16:56.441Z,991.57
2019-02-11T01:18:00.667Z,991.60
2019-02-11T01:19:04.765Z,991.64
2019-02-11T01:20:08.966Z,991.67
2019-02-11T01:21:13.099Z,991.71
2019-02-11T01:22:17.333Z,991.70
2019-02-11T01:23:21.451Z,991.76
2019-02-11T01:24:25.676Z,991.81
2019-02-11T01:25:29.860Z,991.86
2019-02-11T01:26:34.060Z,991.89
2019-02-11T01:27:38.218Z,991.89
2019-02-11T01:28:42.331Z,991.94
2019-02-11T01:29:46.539Z,991.96
2019-02-11T01:30:50.642Z,991.99
2019-02-11T01:31:54.781Z,991.99
2019-02-11T01:32:59.023Z,992.00
2019-02-11T01:34:03.231Z,991.98
2019-02-11T01:35:07.415Z,992.00
2019-02-11T01:36:11.545Z,992.02
2019-02-11T01:37:15.769Z,992.05
2019-02-11T01:38:19.933Z,992.10
2019-02-11T01:39:24.110Z,992.03
2019-02-11T01:40:28.325Z,992.06
2019-02-11T01:41:32.537Z,992.08
2019-02-11T01:42:36.671Z,992.09
2019-02-11T01:43:40.939Z,992.14
2019-02-11T01:44:45.119Z,992.12
2019-02-11T01:45:49.216Z,992.14
2019-02-11T01:46:53.556Z,992.16
2019-02-11T01:47:57.616Z,992.15
2019-02-11T01:49:01.863Z,992.16
2019-02-11T01:50:06.051Z,992.19
2019-02-11T01:51:10.106Z,992.23
2019-02-11T01:52:14.378Z,992.26
2019-02-11T01:53:18.419Z,992.26
2019-02-11T01:54:22.565Z,992.26
2019-02-11T01:55:26.845Z,992.29
2019-02-11T01:56:30.946Z,992.39
2019-02-11T01:57:35.217Z,992.38
2019-02-11T01:58:39.435Z,992.39
2019-02-11T01:59:43.654Z,992.43
2019-02-11T02:00:47.772Z,992.46
2019-02-11T02:01:51.948Z,992.49
2019-02-11T02:02:56.187Z,992.44
2019-02-11T02:04:00.363Z,992.41
2019-02-11T02:05:04.577Z,992.45
2019-02-11T02:06:08.775Z,992.48
2019-02-11T02:07:12.979Z,992.53
2019-02-11T02:08:17.094Z,992.54
2019-02-11T02:09:21.225Z,992.59
2019-02-11T02:10:25.464Z,992.61
2019-02-11T02:11:29.651Z,992.69
2019-02-11T02:12:33.758Z,992.71
2019-02-11T02:13:44.618Z,992.74
2019-02-11T02:14:42.168Z,992.73
2019-02-11T02:15:46.281Z,992.77
2019-02-11T02:16:50.466Z,992.80
2019-02-11T02:17:54.700Z,992.86
2019-02-11T02:18:58.799Z,992.85
2019-02-11T02:20:02.941Z,992.89
2019-02-11T02:21:07.074Z,992.92
2019-02-11T02:22:11.247Z,993.01
2019-02-11T02:23:15.389Z,993.00
2019-02-11T02:24:19.519Z,993.00
2019-02-11T02:25:23.735Z,993.01
2019-02-11T02:26:27.872Z,993.04
2019-02-11T02:27:32.035Z,993.04
2019-02-11T02:28:36.118Z,993.08
2019-02-11T02:29:40.448Z,993.10
2019-02-11T02:30:44.608Z,993.14
2019-02-11T02:31:48.781Z,993.17
2019-02-11T02:32:52.972Z,993.23
2019-02-11T02:33:57.025Z,993.26
2019-02-11T02:35:01.158Z,993.25
2019-02-11T02:36:05.350Z,993.27
2019-02-11T02:37:09.633Z,993.29
2019-02-11T02:38:13.806Z,993.34
2019-02-11T02:39:17.827Z,993.35
2019-02-11T02:40:22.125Z,993.40
2019-02-11T02:41:26.298Z,993.46
2019-02-11T02:42:30.517Z,993.48
2019-02-11T02:43:34.687Z,993.52
2019-02-11T02:44:38.752Z,993.54
2019-02-11T02:45:42.909Z,993.56
2019-02-11T02:46:46.954Z,993.60
2019-02-11T02:47:51.278Z,993.65
2019-02-11T02:48:55.435Z,993.65
2019-02-11T02:49:59.638Z,993.70
2019-02-11T02:51:03.839Z,993.68
2019-02-11T02:52:07.888Z,993.77
2019-02-11T02:53:12.144Z,993.75
2019-02-11T02:54:16.308Z,993.76
2019-02-11T02:55:20.386Z,993.80
2019-02-11T02:56:24.519Z,993.80
2019-02-11T02:57:28.719Z,993.82
2019-02-11T02:58:32.935Z,993.83
2019-02-11T02:59:37.147Z,993.87
2019-02-11T03:00:41.276Z,993.87
2019-02-11T03:01:45.415Z,993.88
2019-02-11T03:02:49.745Z,993.91
2019-02-11T03:03:53.924Z,993.93
2019-02-11T03:04:58.034Z,993.93
2019-02-11T03:06:02.287Z,993.99
2019-02-11T03:07:06.434Z,994.02
2019-02-11T03:08:10.579Z,994.05
2019-02-11T03:09:14.694Z,994.05
2019-02-11T03:10:18.793Z,994.08
2019-02-11T03:11:23.087Z,994.07
2019-02-11T03:12:27.175Z,994.02
2019-02-11T03:13:31.450Z,994.06
2019-02-11T03:14:35.533Z,994.04
2019-02-11T03:15:39.828Z,994.06
2019-02-11T03:16:43.933Z,994.12
2019-02-11T03:17:48.175Z,994.18
2019-02-11T03:18:52.378Z,994.21
2019-02-11T03:19:56.441Z,994.24
2019-02-11T03:21:00.631Z,994.21
2019-02-11T03:22:04.719Z,994.26
2019-02-11T03:23:08.966Z,994.31
2019-02-11T03:24:13.194Z,994.31
2019-02-11T03:25:17.390Z,994.33
2019-02-11T03:26:21.608Z,994.34
2019-02-11T03:27:25.726Z,994.36
2019-02-11T03:28:30.016Z,994.34
2019-02-11T03:29:34.088Z,994.33
2019-02-11T03:30:38.320Z,994.38
2019-02-11T03:31:42.536Z,994.39
2019-02-11T03:32:46.740Z,994.41
2019-02-11T03:33:50.851Z,994.41
2019-02-11T03:34:55.028Z,994.40
2019-02-11T03:35:59.186Z,994.42
2019-02-11T03:37:03.391Z,994.45
2019-02-11T03:38:07.573Z,994.52
2019-02-11T03:39:11.822Z,994.54
2019-02-11T03:40:16.001Z,994.58
2019-02-11T03:41:20.199Z,994.60
2019-02-11T03:42:24.238Z,994.62
2019-02-11T03:43:28.481Z,994.63
2019-02-11T03:44:32.620Z,994.67
2019-02-11T03:45:36.852Z,994.68
2019-02-11T03:46:41.055Z,994.69
2019-02-11T03:47:45.246Z,994.71
2019-02-11T03:48:49.407Z,994.82
2019-02-11T03:49:53.601Z,994.81
2019-02-11T03:50:57.753Z,994.83
2019-02-11T03:52:01.980Z,994.83
2019-02-11T03:53:06.200Z,994.84
2019-02-11T03:54:10.362Z,994.88
2019-02-11T03:55:14.520Z,994.89
2019-02-11T03:56:18.747Z,994.92
2019-02-11T03:57:22.844Z,994.92
2019-02-11T03:58:27.008Z,994.95
2019-02-11T03:59:31.286Z,994.97
2019-02-11T04:00:35.415Z,994.96
2019-02-11T04:01:39.620Z,994.99
2019-02-11T04:02:43.803Z,994.99
2019-02-11T04:03:47.913Z,994.99
2019-02-11T04:04:52.116Z,995.03
2019-02-11T04:05:56.293Z,995.05
2019-02-11T04:07:00.517Z,995.03
2019-02-11T04:08:04.728Z,995.08
2019-02-11T04:09:08.956Z,995.15
2019-02-11T04:10:13.138Z,995.14
2019-02-11T04:11:17.331Z,995.18
2019-02-11T04:12:21.539Z,995.17
2019-02-11T04:13:25.686Z,995.16
2019-02-11T04:14:29.942Z,995.18
2019-02-11T04:15:34.044Z,995.20
2019-02-11T04:16:38.272Z,995.17
2019-02-11T04:17:42.496Z,995.20
2019-02-11T04:18:46.687Z,995.25
2019-02-11T04:19:50.708Z,995.22
2019-02-11T04:20:54.877Z,995.28
2019-02-11T04:21:59.039Z,995.30
2019-02-11T04:23:03.195Z,995.32
2019-02-11T04:24:07.343Z,995.36
2019-02-11T04:25:11.525Z,995.38
2019-02-11T04:26:15.628Z,995.40
2019-02-11T04:27:19.860Z,995.39
2019-02-11T04:28:24.040Z,995.42
2019-02-11T04:29:28.215Z,995.45
2019-02-11T04:30:32.433Z,995.47
2019-02-11T04:31:36.481Z,995.49
2019-02-11T04:32:40.743Z,995.48
2019-02-11T04:33:44.861Z,995.51
2019-02-11T04:34:49.136Z,995.55
2019-02-11T04:35:53.291Z,995.55
2019-02-11T04:36:57.509Z,995.59
2019-02-11T04:38:01.622Z,995.57
2019-02-11T04:39:05.850Z,995.58
2019-02-11T04:40:10.000Z,995.61
2019-02-11T04:41:14.211Z,995.64
2019-02-11T04:42:18.373Z,995.63
2019-02-11T04:43:22.581Z,995.68
2019-02-11T04:44:33.815Z,995.70
2019-02-11T04:45:30.808Z,995.65
2019-02-11T04:46:35.093Z,995.70
2019-02-11T04:47:39.276Z,995.69
2019-02-11T04:48:43.409Z,995.71
2019-02-11T04:49:47.592Z,995.73
2019-02-11T04:50:51.838Z,995.72
2019-02-11T04:51:55.998Z,995.80
2019-02-11T04:53:00.224Z,995.78
2019-02-11T04:54:04.315Z,995.82
2019-02-11T04:55:08.465Z,995.86
2019-02-11T04:56:12.649Z,995.91
2019-02-11T04:57:16.820Z,995.91
2019-02-11T04:58:21.067Z,995.98
2019-02-11T04:59:25.214Z,996.01
2019-02-11T05:00:29.415Z,996.00
2019-02-11T05:01:33.535Z,996.09
2019-02-11T05:02:37.779Z,996.10
2019-02-11T05:03:41.906Z,996.05
2019-02-11T05:04:46.164Z,996.07
2019-02-11T05:05:50.380Z,996.14
2019-02-11T05:06:54.412Z,996.14
2019-02-11T05:07:58.710Z,996.17
2019-02-11T05:09:02.879Z,996.19
2019-02-11T05:10:07.083Z,996.21
2019-02-11T05:11:11.323Z,996.20
2019-02-11T05:12:15.506Z,996.22
2019-02-11T05:13:19.695Z,996.24
2019-02-11T05:14:23.079Z,996.29
2019-02-11T05:15:27.278Z,996.28
2019-02-11T05:16:31.526Z,996.27
2019-02-11T05:17:35.590Z,996.26
2019-02-11T05:18:39.853Z,996.30
2019-02-11T05:19:43.953Z,996.32
2019-02-11T05:20:48.163Z,996.41
2019-02-11T05:21:52.363Z,996.37
2019-02-11T05:22:56.546Z,996.37
2019-02-11T05:24:00.648Z,996.39
2019-02-11T05:25:04.883Z,996.37
2019-02-11T05:26:09.114Z,996.43
2019-02-11T05:27:13.201Z,996.43
2019-02-11T05:28:17.369Z,996.42
2019-02-11T05:29:21.608Z,996.47
2019-02-11T05:30:25.743Z,996.44
2019-02-11T05:31:32.525Z,996.53
2019-02-11T05:32:34.221Z,996.47
2019-02-11T05:33:38.395Z,996.52
2019-02-11T05:34:42.596Z,996.63
2019-02-11T05:35:46.702Z,996.62
2019-02-11T05:36:50.993Z,996.60
2019-02-11T05:37:55.188Z,996.65
2019-02-11T05:38:59.385Z,996.68
2019-02-11T05:40:03.612Z,996.69
2019-02-11T05:41:07.697Z,996.76
2019-02-11T05:42:11.920Z,996.72
2019-02-11T05:43:16.162Z,996.74
2019-02-11T05:44:20.341Z,996.75
2019-02-11T05:45:24.535Z,996.76
2019-02-11T05:46:28.716Z,996.80
2019-02-11T05:47:32.956Z,996.78
2019-02-11T05:48:37.146Z,996.80
2019-02-11T05:49:41.318Z,996.84
2019-02-11T05:50:45.532Z,996.86
2019-02-11T05:51:49.656Z,996.85
2019-02-11T05:52:53.865Z,996.84
2019-02-11T05:53:57.956Z,996.87
2019-02-11T05:55:02.114Z,996.94
2019-02-11T05:56:06.321Z,996.92
2019-02-11T05:57:10.556Z,996.93
2019-02-11T05:58:14.743Z,997.00
2019-02-11T05:59:18.947Z,997.01
2019-02-11T06:00:23.151Z,997.00
2019-02-11T06:01:27.304Z,997.01
2019-02-11T06:02:31.528Z,996.99
2019-02-11T06:03:35.726Z,997.00
2019-02-11T06:04:39.926Z,997.08
2019-02-11T06:05:44.169Z,997.14
2019-02-11T06:06:48.324Z,997.19
2019-02-11T06:07:52.510Z,997.20
2019-02-11T06:08:56.743Z,997.19
2019-02-11T06:10:00.963Z,997.24
2019-02-11T06:11:05.178Z,997.27
2019-02-11T06:12:09.372Z,997.30
2019-02-11T06:13:13.561Z,997.32
2019-02-11T06:14:17.759Z,997.35
2019-02-11T06:15:21.877Z,997.31
2019-02-11T06:16:26.039Z,997.40
2019-02-11T06:17:30.307Z,997.39
2019-02-11T06:18:34.378Z,997.44
2019-02-11T06:19:38.573Z,997.48
2019-02-11T06:20:42.738Z,997.46
2019-02-11T06:21:46.977Z,997.43
2019-02-11T06:22:51.107Z,997.45
2019-02-11T06:23:55.283Z,997.48
2019-02-11T06:24:59.555Z,997.52
2019-02-11T06:26:03.728Z,997.57
2019-02-11T06:27:07.894Z,997.57
2019-02-11T06:28:12.047Z,997.59
2019-02-11T06:29:16.243Z,997.60
2019-02-11T06:30:20.473Z,997.55
2019-02-11T06:31:24.646Z,997.63
2019-02-11T06:32:28.800Z,997.66
2019-02-11T06:33:32.995Z,997.68
2019-02-11T06:34:37.102Z,997.73
2019-02-11T06:35:41.340Z,997.72
2019-02-11T06:36:45.458Z,997.77
2019-02-11T06:37:49.730Z,997.80
2019-02-11T06:38:53.900Z,997.82
2019-02-11T06:39:58.085Z,997.89
2019-02-11T06:41:05.238Z,997.90
2019-02-11T06:42:08.378Z,997.93
2019-02-11T06:43:12.652Z,998.00
2019-02-11T06:44:16.826Z,998.03
2019-02-11T06:45:21.045Z,998.07
2019-02-11T06:46:25.158Z,998.07
2019-02-11T06:47:29.420Z,998.13
2019-02-11T06:48:33.629Z,998.13
2019-02-11T06:49:37.782Z,998.17
2019-02-11T06:50:41.965Z,998.16
2019-02-11T06:51:46.056Z,998.23
2019-02-11T06:52:50.198Z,998.25
2019-02-11T06:53:54.468Z,998.28
2019-02-11T06:54:58.612Z,998.25
2019-02-11T06:56:02.755Z,998.29
2019-02-11T06:57:07.025Z,998.33
2019-02-11T06:58:11.171Z,998.27
2019-02-11T06:59:15.440Z,998.25
2019-02-11T07:00:19.610Z,998.34
2019-02-11T07:01:23.765Z,998.36
2019-02-11T07:02:27.872Z,998.31
2019-02-11T07:03:32.099Z,998.33
2019-02-11T07:04:36.305Z,998.40
2019-02-11T07:05:40.434Z,998.37
2019-02-11T07:06:44.666Z,998.40
2019-02-11T07:07:48.854Z,998.41
2019-02-11T07:08:53.036Z,998.40
2019-02-11T07:09:57.272Z,998.43
2019-02-11T07:11:01.492Z,998.43
2019-02-11T07:12:05.658Z,998.42
2019-02-11T07:13:09.829Z,998.41
2019-02-11T07:14:14.069Z,998.41
2019-02-11T07:15:22.263Z,998.46
2019-02-11T07:16:22.223Z,998.45
2019-02-11T07:17:26.520Z,998.44
2019-02-11T07:18:30.628Z,998.51
2019-02-11T07:19:34.861Z,998.51
2019-02-11T07:20:38.961Z,998.52
2019-02-11T07:21:43.116Z,998.53
2019-02-11T07:22:47.368Z,998.58
2019-02-11T07:23:51.544Z,998.58
2019-02-11T07:24:55.751Z,998.63
2019-02-11T07:25:59.930Z,998.65
2019-02-11T07:27:04.026Z,998.68
2019-02-11T07:28:08.242Z,998.66
2019-02-11T07:29:12.493Z,998.77
2019-02-11T07:30:16.591Z,998.74
2019-02-11T07:31:20.739Z,998.80
2019-02-11T07:32:24.936Z,998.81
2019-02-11T07:33:29.121Z,998.84
2019-02-11T07:34:33.198Z,998.90
2019-02-11T07:35:37.439Z,998.91
2019-02-11T07:36:41.550Z,998.97
2019-02-11T07:37:45.713Z,998.96
2019-02-11T07:38:49.884Z,998.91
2019-02-11T07:39:54.091Z,998.97
2019-02-11T07:40:58.212Z,998.99
2019-02-11T07:42:02.460Z,998.98
2019-02-11T07:43:06.628Z,998.96
2019-02-11T07:44:10.793Z,998.99
2019-02-11T07:45:15.050Z,999.07
2019-02-11T07:46:19.261Z,999.04
2019-02-11T07:47:23.390Z,999.10
2019-02-11T07:48:27.598Z,999.10
2019-02-11T07:49:31.784Z,999.15
2019-02-11T07:50:36.038Z,999.14
2019-02-11T07:51:42.264Z,999.18
2019-02-11T07:52:44.362Z,999.21
2019-02-11T07:53:48.626Z,999.30
2019-02-11T07:54:52.845Z,999.31
2019-02-11T07:55:56.944Z,999.32
2019-02-11T07:57:01.121Z,999.35
2019-02-11T07:58:05.338Z,999.41
2019-02-11T07:59:09.546Z,999.46
2019-02-11T08:00:13.666Z,999.56
2019-02-11T08:01:17.833Z,999.56
2019-02-11T08:02:22.037Z,999.59
2019-02-11T08:03:26.250Z,999.61
2019-02-11T08:04:30.436Z,999.64
2019-02-11T08:05:34.694Z,999.67
2019-02-11T08:06:38.742Z,999.67
2019-02-11T08:07:42.998Z,999.71
2019-02-11T08:08:47.195Z,999.77
2019-02-11T08:09:51.218Z,999.78
2019-02-11T08:10:55.452Z,999.83
2019-02-11T08:12:00.407Z,999.87
2019-02-11T08:13:03.836Z,999.86
2019-02-11T08:14:07.894Z,999.90
2019-02-11T08:15:12.239Z,999.91
2019-02-11T08:16:16.363Z,999.97
2019-02-11T08:17:20.547Z,1000.03
2019-02-11T08:18:24.738Z,1000.03
2019-02-11T08:19:28.989Z,1000.08
2019-02-11T08:20:33.180Z,1000.10
2019-02-11T08:21:37.303Z,1000.14
2019-02-11T08:22:41.542Z,1000.23
2019-02-11T08:23:45.659Z,1000.23
2019-02-11T08:24:49.797Z,1000.22
2019-02-11T08:25:53.984Z,1000.22
2019-02-11T08:26:58.271Z,1000.27
2019-02-11T08:28:02.455Z,1000.32
2019-02-11T08:29:06.612Z,1000.36
2019-02-11T08:30:10.834Z,1000.35
2019-02-11T08:31:14.964Z,1000.35
2019-02-11T08:32:19.089Z,1000.41
2019-02-11T08:33:23.276Z,1000.42
2019-02-11T08:34:27.389Z,1000.45
2019-02-11T08:35:31.498Z,1000.50
2019-02-11T08:36:35.800Z,1000.47
2019-02-11T08:37:39.890Z,1000.50
2019-02-11T08:38:44.122Z,1000.54
2019-02-11T08:39:48.216Z,1000.60
2019-02-11T08:40:52.505Z,1000.59
2019-02-11T08:41:56.570Z,1000.60
2019-02-11T08:43:00.844Z,1000.64
2019-02-11T08:44:05.008Z,1000.65
2019-02-11T08:45:09.188Z,1000.64
2019-02-11T08:46:13.357Z,1000.70
2019-02-11T08:47:19.381Z,1000.72
2019-02-11T08:48:21.792Z,1000.84
2019-02-11T08:49:26.013Z,1000.76
2019-02-11T08:50:30.211Z,1000.79
2019-02-11T08:51:34.424Z,1000.84
2019-02-11T08:52:38.542Z,1000.83
2019-02-11T08:53:42.676Z,1000.86
2019-02-11T08:54:46.822Z,1000.87
2019-02-11T08:55:50.938Z,1000.89
2019-02-11T08:56:55.232Z,1000.94
2019-02-11T08:57:59.357Z,1000.97
2019-02-11T08:59:03.617Z,1001.00
2019-02-11T09:00:07.705Z,1001.03
2019-02-11T09:01:11.866Z,1001.13
2019-02-11T09:02:16.057Z,1001.13
2019-02-11T09:03:20.286Z,1001.15
2019-02-11T09:04:24.397Z,1001.17
2019-02-11T09:05:28.642Z,1001.18
2019-02-11T09:06:32.915Z,1001.22
2019-02-11T09:07:37.031Z,1001.21
2019-02-11T09:08:41.268Z,1001.22
2019-02-11T09:09:45.356Z,1001.28
2019-02-11T09:10:49.515Z,1001.29
2019-02-11T09:11:53.713Z,1001.27
2019-02-11T09:12:57.946Z,1001.34
2019-02-11T09:14:02.152Z,1001.36
2019-02-11T09:15:06.381Z,1001.39
2019-02-11T09:16:10.547Z,1001.44
2019-02-11T09:17:14.786Z,1001.48
2019-02-11T09:18:20.774Z,1001.49
2019-02-11T09:19:23.045Z,1001.50
2019-02-11T09:20:27.329Z,1001.48
2019-02-11T09:21:31.525Z,1001.55
2019-02-11T09:22:35.766Z,1001.56
2019-02-11T09:23:39.869Z,1001.60
2019-02-11T09:24:43.997Z,1001.65
2019-02-11T09:25:48.152Z,1001.66
2019-02-11T09:26:52.333Z,1001.71
2019-02-11T09:27:56.541Z,1001.70
2019-02-11T09:29:00.760Z,1001.75
2019-02-11T09:30:04.889Z,1001.81
2019-02-11T09:31:09.039Z,1001.85
2019-02-11T09:32:13.253Z,1001.88
2019-02-11T09:33:17.547Z,1001.93
2019-02-11T09:34:21.651Z,1001.97
2019-02-11T09:35:25.836Z,1002.02
2019-02-11T09:36:30.066Z,1001.99
2019-02-11T09:37:34.219Z,1002.05
2019-02-11T09:38:38.383Z,1002.06
2019-02-11T09:39:42.498Z,1002.08
2019-02-11T09:40:46.808Z,1002.11
2019-02-11T09:41:50.945Z,1002.15
2019-02-11T09:42:55.230Z,1002.22
2019-02-11T09:43:59.341Z,1002.24
2019-02-11T09:45:03.586Z,1002.26
2019-02-11T09:46:07.757Z,1002.29
2019-02-11T09:47:11.897Z,1002.36
2019-02-11T09:48:16.027Z,1002.41
2019-02-11T09:49:20.151Z,1002.47
2019-02-11T09:50:24.450Z,1002.51
2019-02-11T09:51:28.536Z,1002.54
2019-02-11T09:52:32.746Z,1002.54
2019-02-11T09:53:36.956Z,1002.58
2019-02-11T09:54:41.149Z,1002.64
2019-02-11T09:55:45.275Z,1002.65
2019-02-11T09:56:49.503Z,1002.64
2019-02-11T09:57:53.636Z,1002.72
2019-02-11T09:58:57.907Z,1002.78
2019-02-11T10:00:02.126Z,1002.80
2019-02-11T10:01:06.249Z,1002.84
2019-02-11T10:02:10.382Z,1002.85
2019-02-11T10:03:14.557Z,1002.91
2019-02-11T10:04:18.798Z,1002.91
2019-02-11T10:05:22.955Z,1002.94
2019-02-11T10:06:27.114Z,1002.97
2019-02-11T10:07:31.354Z,1003.02
2019-02-11T10:08:35.516Z,1003.08
2019-02-11T10:09:39.745Z,1003.08
2019-02-11T10:10:43.975Z,1003.11
2019-02-11T10:11:48.106Z,1003.12
2019-02-11T10:12:52.250Z,1003.11
2019-02-11T10:13:56.518Z,1003.15
2019-02-11T10:15:00.677Z,1003.20
2019-02-11T10:16:12.276Z,1003.23
2019-02-11T10:17:09.065Z,1003.25
2019-02-11T10:18:13.289Z,1003.28
2019-02-11T10:19:17.476Z,1003.31
2019-02-11T10:20:21.603Z,1003.33
2019-02-11T10:21:25.809Z,1003.36
2019-02-11T10:22:29.892Z,1003.37
2019-02-11T10:23:34.086Z,1003.41
2019-02-11T10:24:38.317Z,1003.42
2019-02-11T10:25:42.459Z,1003.46
2019-02-11T10:26:47.198Z,1003.51
2019-02-11T10:27:50.897Z,1003.49
2019-02-11T10:28:55.008Z,1003.52
2019-02-11T10:29:59.081Z,1003.48
2019-02-11T10:31:03.410Z,1003.49
2019-02-11T10:32:07.583Z,1003.56
2019-02-11T10:33:11.798Z,1003.53
2019-02-11T10:34:15.981Z,1003.59
2019-02-11T10:35:20.108Z,1003.60
2019-02-11T10:36:24.340Z,1003.62
2019-02-11T10:37:28.444Z,1003.65
2019-02-11T10:38:36.555Z,1003.68
2019-02-11T10:39:36.823Z,1003.75
2019-02-11T10:40:40.958Z,1003.77
2019-02-11T10:41:45.141Z,1003.81
2019-02-11T10:42:49.373Z,1003.83
2019-02-11T10:43:53.565Z,1003.88
2019-02-11T10:44:57.670Z,1003.90
2019-02-11T10:46:01.858Z,1003.94
2019-02-11T10:47:06.175Z,1003.92
2019-02-11T10:48:10.330Z,1003.95
2019-02-11T10:49:14.564Z,1003.99
2019-02-11T10:50:18.591Z,1003.96
2019-02-11T10:51:22.863Z,1003.99
2019-02-11T10:52:27.126Z,1003.94
2019-02-11T10:53:31.300Z,1003.98
2019-02-11T10:54:35.379Z,1004.05
2019-02-11T10:55:39.661Z,1004.03
2019-02-11T10:56:43.754Z,1004.04
2019-02-11T10:57:47.915Z,1004.09
2019-02-11T10:58:52.204Z,1004.13
2019-02-11T10:59:56.414Z,1004.15
2019-02-11T11:01:00.565Z,1004.17
2019-02-11T11:02:04.780Z,1004.18
2019-02-11T11:03:08.934Z,1004.25
2019-02-11T11:04:13.199Z,1004.19
2019-02-11T11:05:17.430Z,1004.30
2019-02-11T11:06:21.613Z,1004.38
2019-02-11T11:07:25.702Z,1004.39
2019-02-11T11:08:29.960Z,1004.39
2019-02-11T11:09:34.148Z,1004.42
2019-02-11T11:10:38.282Z,1004.50
2019-02-11T11:11:42.435Z,1004.44
2019-02-11T11:12:46.686Z,1004.52
2019-02-11T11:13:50.816Z,1004.53
2019-02-11T11:14:55.096Z,1004.57
2019-02-11T11:15:59.277Z,1004.56
2019-02-11T11:17:03.466Z,1004.61
2019-02-11T11:18:07.693Z,1004.60
2019-02-11T11:19:11.845Z,1004.64
2019-02-11T11:20:16.107Z,1004.61
2019-02-11T11:21:20.303Z,1004.67
2019-02-11T11:22:24.465Z,1004.75
2019-02-11T11:23:28.665Z,1004.71
2019-02-11T11:24:32.866Z,1004.72
2019-02-11T11:25:36.986Z,1004.78
2019-02-11T11:26:41.186Z,1004.80
2019-02-11T11:27:45.435Z,1004.89
2019-02-11T11:28:49.626Z,1004.91
2019-02-11T11:29:53.762Z,1004.90
2019-02-11T11:30:57.999Z,1004.91
2019-02-11T11:32:02.091Z,1004.94
2019-02-11T11:33:06.310Z,1004.94
2019-02-11T11:34:10.476Z,1004.96
2019-02-11T11:35:14.625Z,1004.99
2019-02-11T11:36:18.921Z,1005.00
2019-02-11T11:37:23.060Z,1005.05
2019-02-11T11:38:27.306Z,1005.13
2019-02-11T11:39:31.469Z,1005.12
2019-02-11T11:40:35.790Z,1005.12
2019-02-11T11:41:39.997Z,1005.13
2019-02-11T11:42:44.134Z,1005.10
2019-02-11T11:43:48.358Z,1005.13
2019-02-11T11:44:52.589Z,1005.18
2019-02-11T11:45:56.775Z,1005.20
2019-02-11T11:47:00.961Z,1005.28
2019-02-11T11:48:05.209Z,1005.26
2019-02-11T11:49:09.361Z,1005.28
2019-02-11T11:50:13.478Z,1005.32
2019-02-11T11:51:17.707Z,1005.33
2019-02-11T11:52:21.937Z,1005.37
2019-02-11T11:53:26.157Z,1005.35
2019-02-11T11:54:30.279Z,1005.41
2019-02-11T11:55:34.477Z,1005.39
2019-02-11T11:56:38.685Z,1005.42
2019-02-11T11:57:42.927Z,1005.50
2019-02-11T11:58:47.008Z,1005.47
2019-02-11T11:59:51.173Z,1005.54
2019-02-11T12:00:55.357Z,1005.47
2019-02-11T12:01:59.527Z,1005.60
2019-02-11T12:03:05.296Z,1005.61
2019-02-11T12:04:07.956Z,1005.62
2019-02-11T12:05:12.128Z,1005.71
2019-02-11T12:06:16.235Z,1005.72
2019-02-11T12:07:20.374Z,1005.71
2019-02-11T12:08:24.550Z,1005.78
2019-02-11T12:09:28.749Z,1005.76
2019-02-11T12:10:33.024Z,1005.79
2019-02-11T12:11:37.273Z,1005.80
2019-02-11T12:12:41.466Z,1005.83
2019-02-11T12:13:45.655Z,1005.84
2019-02-11T12:14:49.794Z,1005.87
2019-02-11T12:15:53.922Z,1005.87
2019-02-11T12:17:02.693Z,1005.87
2019-02-11T12:18:02.287Z,1005.92
2019-02-11T12:19:06.518Z,1005.93
2019-02-11T12:20:10.749Z,1005.96
2019-02-11T12:21:14.927Z,1005.98
2019-02-11T12:22:19.101Z,1005.99
2019-02-11T12:23:23.273Z,1006.02
2019-02-11T12:24:27.518Z,1006.07
2019-02-11T12:25:31.735Z,1006.04
2019-02-11T12:26:35.987Z,1006.12
2019-02-11T12:27:40.107Z,1006.12
2019-02-11T12:28:44.264Z,1006.15
2019-02-11T12:29:48.434Z,1006.20
2019-02-11T12:30:53.865Z,1006.22
2019-02-11T12:31:56.792Z,1006.17
2019-02-11T12:33:01.069Z,1006.21
2019-02-11T12:34:05.168Z,1006.20
2019-02-11T12:35:09.421Z,1006.28
2019-02-11T12:36:13.499Z,1006.25
2019-02-11T12:37:17.773Z,1006.28
2019-02-11T12:38:22.026Z,1006.30
2019-02-11T12:39:26.231Z,1006.35
2019-02-11T12:40:30.365Z,1006.39
2019-02-11T12:41:34.610Z,1006.38
2019-02-11T12:42:38.716Z,1006.47
2019-02-11T12:43:42.988Z,1006.51
2019-02-11T12:44:47.189Z,1006.54
2019-02-11T12:45:51.410Z,1006.60
2019-02-11T12:47:12.824Z,1006.57
2019-02-11T12:47:59.695Z,1006.63
2019-02-11T12:49:03.961Z,1006.70
2019-02-11T12:50:08.215Z,1006.70
2019-02-11T12:51:12.383Z,1006.70
2019-02-11T12:52:16.515Z,1006.77
2019-02-11T12:53:20.801Z,1006.76
2019-02-11T12:54:24.897Z,1006.84
2019-02-11T12:55:29.048Z,1006.86
2019-02-11T12:56:33.183Z,1007.01
2019-02-11T12:57:37.460Z,1006.97
2019-02-11T12:58:41.665Z,1007.12
2019-02-11T12:59:45.878Z,1007.01
2019-02-11T13:00:50.065Z,1007.03
2019-02-11T13:01:54.204Z,1007.04
2019-02-11T13:02:58.468Z,1007.15
2019-02-11T13:04:03.469Z,1007.12
2019-02-11T13:05:07.255Z,1007.17
2019-02-11T13:06:11.427Z,1007.17
2019-02-11T13:07:15.619Z,1007.23
2019-02-11T13:08:19.826Z,1007.23
2019-02-11T13:09:23.934Z,1007.26
2019-02-11T13:10:28.144Z,1007.29
2019-02-11T13:11:32.489Z,1007.30